MDT,Max TemperatureF,Mean TemperatureF,Min TemperatureF,Max Dew PointF,MeanDew PointF,Min DewpointF,Max Humidity, Mean Humidity, Min Humidity, Max Sea Level PressureIn, Mean Sea Level PressureIn, Min Sea Level PressureIn, Max VisibilityMiles, Mean VisibilityMiles, Min VisibilityMiles, Max Wind SpeedMPH, Mean Wind SpeedMPH, Max Gust SpeedMPH,PrecipitationIn, CloudCover, Events, WindDirDegrees
2013-6-1,64,52,39,45,41,36,93,68,43,30.18,30.08,29.92,10,10,5,37,20,45,0.02,4,Rain,339
2013-6-2,73,56,39,50,44,36,86,64,41,30.17,29.97,29.78,10,10,10,21,10,29,0.00,0,,136
2013-6-3,71,60,49,53,47,42,93,67,40,29.90,29.70,29.56,10,10,10,31,14,38,0.00,1,,14
2013-6-4,63,53,42,43,40,35,76,63,49,30.20,30.05,29.91,10,10,10,33,17,44,0.00,3,,346
2013-6-5,63,53,42,45,41,37,82,65,48,30.22,30.16,30.12,10,10,10,21,11,29,0.00,6,,334
2013-6-6,71,55,38,48,44,37,92,66,40,30.12,30.06,30.03,10,10,10,13,5,16,0.00,1,,55
2013-6-7,81,63,44,56,50,41,89,62,35,30.05,29.84,29.65,10,10,10,23,8,29,0.12,2,Rain-Thunderstorm,117
2013-6-8,74,62,50,54,49,43,93,63,33,29.91,29.75,29.62,10,10,10,36,17,46,0.02,2,Rain,331
2013-6-9,77,63,48,53,48,43,86,62,38,29.95,29.87,29.76,10,10,10,16,8,22,0.00,0,,92
2013-6-10,83,69,54,61,55,49,86,65,43,29.80,29.73,29.66,10,10,10,28,12,35,0.00,0,,30
2013-6-11,74,65,56,63,57,52,93,78,63,29.96,29.85,29.76,10,9,2,37,10,46,0.42,6,Rain-Thunderstorm,43
2013-6-12,68,61,53,55,52,51,100,79,58,30.16,30.06,29.87,10,10,8,22,8,25,0.00,5,,8
2013-6-13,73,62,50,58,53,48,89,71,53,30.15,29.98,29.79,10,10,10,30,15,37,T,1,Rain-Thunderstorm,173
2013-6-14,79,68,56,57,52,45,93,62,30,29.99,29.84,29.70,10,10,10,32,13,40,0.00,1,Thunderstorm,10
2013-6-15,77,64,50,52,45,35,83,55,27,30.04,29.99,29.95,10,10,10,15,6,17,0.00,3,,27
2013-6-16,79,65,50,59,52,47,86,61,36,30.07,29.99,29.94,10,10,10,24,6,29,0.00,1,Thunderstorm,103
2013-6-17,74,62,50,57,52,49,93,70,47,30.13,30.08,30.06,10,10,10,12,5,15,0.05,2,Rain-Thunderstorm,113
2013-6-18,84,67,49,59,54,48,93,64,34,30.06,29.96,29.83,10,10,10,21,7,25,0.00,0,,143
2013-6-19,87,73,59,63,57,49,84,60,35,29.82,29.69,29.55,10,10,10,46,16,59,T,0,Thunderstorm,157
2013-6-20,86,75,64,62,50,38,78,52,25,29.84,29.73,29.56,10,10,10,30,13,37,0.01,0,Rain-Thunderstorm,357
2013-6-21,73,67,60,63,61,58,97,81,64,29.98,29.88,29.80,10,8,0,29,11,36,1.14,6,Fog-Rain-Thunderstorm,350
2013-6-22,79,66,53,62,57,49,100,74,48,29.97,29.89,29.75,10,8,2,33,12,40,0.38,5,Rain-Thunderstorm,4
2013-6-23,77,64,51,56,51,46,96,70,43,29.92,29.85,29.78,10,10,10,15,6,20,0.00,0,,119
2013-6-24,87,72,57,66,55,42,93,61,28,29.77,29.66,29.60,10,10,10,32,9,40,T,0,,162
2013-6-25,82,70,57,58,53,43,80,58,35,29.82,29.67,29.55,10,10,10,33,11,41,0.00,0,,322
2013-6-26,87,71,55,60,56,52,93,64,35,29.98,29.88,29.82,10,10,10,20,7,25,0.00,0,,355
2013-6-27,89,74,58,57,55,53,84,59,34,30.13,30.05,29.99,10,10,10,22,7,25,0.00,0,,339
2013-6-28,85,71,56,54,52,48,80,56,31,30.18,30.13,30.06,10,10,10,31,13,38,0.00,0,,348
2013-6-29,82,69,55,55,50,42,78,52,26,30.15,30.11,30.06,10,10,10,22,9,29,0.00,1,,359
2013-6-30,84,68,52,55,50,47,83,56,28,30.16,30.13,30.10,10,10,10,16,6,20,0.00,2,,91